createdAt,value
2022-09-23T05:19:11.891Z,14.60
2022-09-23T05:21:40.306Z,14.80
2022-09-23T05:24:08.898Z,15.23
2022-09-23T05:26:36.561Z,15.13
2022-09-23T05:29:04.477Z,14.97
2022-09-23T05:31:32.544Z,15.12
2022-09-23T05:34:03.650Z,15.09
2022-09-23T05:36:37.114Z,15.45
2022-09-23T05:39:06.560Z,15.74
2022-09-23T05:41:34.655Z,15.97
2022-09-23T05:44:02.737Z,16.06
2022-09-23T05:46:31.188Z,16.11
2022-09-23T05:49:02.458Z,15.80
2022-09-23T05:51:31.709Z,16.28
2022-09-23T05:54:00.268Z,16.41
2022-09-23T05:56:28.397Z,16.58
2022-09-23T05:58:57.704Z,16.73
2022-09-23T06:01:29.435Z,16.93
2022-09-23T06:03:57.885Z,17.08
2022-09-23T06:06:36.582Z,17.25
2022-09-23T06:09:05.275Z,17.70
2022-09-23T06:11:34.613Z,17.51
2022-09-23T06:14:02.985Z,18.01
2022-09-23T06:16:32.758Z,18.37
2022-09-23T06:19:05.873Z,18.51
2022-09-23T06:21:36.081Z,18.97
2022-09-23T06:24:04.719Z,18.86
2022-09-23T06:26:35.660Z,19.35
2022-09-23T06:29:04.192Z,19.35
2022-09-23T06:31:33.122Z,18.88
2022-09-23T06:34:12.402Z,19.64
2022-09-23T06:36:45.103Z,19.66
2022-09-23T06:39:14.985Z,19.32
2022-09-23T06:41:44.893Z,19.77
2022-09-23T06:44:14.176Z,20.04
2022-09-23T06:46:42.076Z,20.46
2022-09-23T06:49:12.637Z,20.36
2022-09-23T06:51:40.367Z,19.51
2022-09-23T06:54:08.514Z,19.71
2022-09-23T06:56:39.566Z,19.86
2022-09-23T06:59:09.363Z,19.84
2022-09-23T07:01:37.187Z,20.30
2022-09-23T07:04:05.291Z,19.52
2022-09-23T07:06:33.275Z,20.01
2022-09-23T07:09:01.232Z,20.38
2022-09-23T07:11:29.212Z,20.44
2022-09-23T07:13:57.163Z,20.96
2022-09-23T07:16:25.278Z,20.25
2022-09-23T07:18:53.656Z,19.91
2022-09-23T07:21:21.627Z,19.56
2022-09-23T07:23:50.487Z,19.83
2022-09-23T07:26:19.181Z,20.29
2022-09-23T07:28:47.254Z,20.55
2022-09-23T07:31:24.277Z,20.20
2022-09-23T07:33:57.932Z,21.07
2022-09-23T07:36:28.021Z,20.35
2022-09-23T07:39:00.775Z,20.58
2022-09-23T07:41:29.083Z,19.46
2022-09-23T07:43:59.067Z,20.80
2022-09-23T07:46:28.187Z,20.65
2022-09-23T07:48:56.033Z,20.98
2022-09-23T07:51:26.523Z,20.95
2022-09-23T07:53:54.697Z,19.86
2022-09-23T07:56:25.549Z,19.37
2022-09-23T07:59:04.651Z,20.07
2022-09-23T08:01:39.532Z,19.94
2022-09-23T08:04:21.291Z,20.18
2022-09-23T08:06:54.102Z,20.92
2022-09-23T08:09:23.714Z,20.34
2022-09-23T08:11:51.684Z,19.77
2022-09-23T08:14:22.415Z,19.98
2022-09-23T08:16:50.260Z,20.38
2022-09-23T08:19:18.051Z,20.51
2022-09-23T08:21:47.635Z,19.44
2022-09-23T08:24:16.953Z,19.70
2022-09-23T08:26:45.433Z,19.73
2022-09-23T08:29:14.252Z,20.69
2022-09-23T08:31:42.626Z,21.09
2022-09-23T08:34:10.567Z,20.42
2022-09-23T08:36:38.508Z,20.09
2022-09-23T08:39:06.632Z,21.29
2022-09-23T08:41:58.832Z,21.14
2022-09-23T08:44:45.973Z,19.33
2022-09-23T08:47:43.858Z,20.23
2022-09-23T08:50:19.226Z,20.83
2022-09-23T08:52:55.293Z,20.48
2022-09-23T08:55:35.807Z,21.41
2022-09-23T08:58:24.441Z,21.31
2022-09-23T09:01:10.751Z,21.31
2022-09-23T09:03:53.827Z,19.15
2022-09-23T09:06:31.170Z,18.79
2022-09-23T09:09:01.064Z,19.18
2022-09-23T09:11:35.344Z,20.18
2022-09-23T09:14:17.622Z,20.86
2022-09-23T09:16:59.420Z,20.83
2022-09-23T09:19:52.650Z,21.21
2022-09-23T09:22:41.612Z,20.76
2022-09-23T09:25:15.645Z,21.36
2022-09-23T09:27:43.714Z,21.24
2022-09-23T09:30:14.753Z,21.66
2022-09-23T09:33:03.031Z,19.96
2022-09-23T09:35:55.032Z,19.71
2022-09-23T09:38:23.010Z,20.83
2022-09-23T09:40:50.787Z,21.13
2022-09-23T09:43:25.584Z,20.93
2022-09-23T09:45:59.285Z,20.55
2022-09-23T09:48:39.946Z,20.64
2022-09-23T09:51:24.315Z,20.54
2022-09-23T09:53:52.698Z,21.03
2022-09-23T09:56:42.183Z,19.85
2022-09-23T09:59:18.543Z,20.84
2022-09-23T10:01:46.957Z,20.04
2022-09-23T10:04:29.494Z,20.40
2022-09-23T10:07:09.916Z,20.54
2022-09-23T10:09:38.412Z,19.95
2022-09-23T10:12:18.713Z,20.62
2022-09-23T10:14:47.391Z,20.46
2022-09-23T10:17:17.944Z,19.72
2022-09-23T10:20:00.997Z,19.57
2022-09-23T10:22:39.077Z,19.97
2022-09-23T10:25:16.506Z,20.00
2022-09-23T10:27:45.642Z,19.53
2022-09-23T10:30:26.546Z,19.95
2022-09-23T10:32:57.417Z,19.87
2022-09-23T10:35:25.557Z,19.95
2022-09-23T10:37:57.254Z,19.42
2022-09-23T10:44:11.511Z,20.50
2022-09-23T10:46:49.421Z,20.91
2022-09-23T10:49:38.909Z,21.05
2022-09-23T10:52:12.290Z,20.73
2022-09-23T10:54:51.861Z,21.18
2022-09-23T10:57:40.758Z,21.01
2022-09-23T11:00:17.930Z,20.08
2022-09-23T11:03:00.874Z,20.41
2022-09-23T11:05:37.700Z,19.91
2022-09-23T11:08:18.432Z,20.67
2022-09-23T11:11:16.995Z,20.70
2022-09-23T11:14:17.358Z,20.55
2022-09-23T11:17:22.253Z,20.83
2022-09-23T11:20:21.391Z,20.82
2022-09-23T11:22:48.978Z,20.74
2022-09-23T11:25:30.346Z,21.49
2022-09-23T11:28:23.316Z,20.98
2022-09-23T11:31:14.724Z,20.87
2022-09-23T11:33:42.618Z,20.69
2022-09-23T11:36:14.813Z,20.72
2022-09-23T11:38:45.106Z,20.90
2022-09-23T11:41:20.335Z,21.27
2022-09-23T11:43:52.402Z,21.46
2022-09-23T11:46:32.874Z,21.37
2022-09-23T11:49:27.247Z,21.18
2022-09-23T11:52:13.104Z,21.44
2022-09-23T11:54:45.448Z,21.48
2022-09-23T11:57:29.582Z,21.42
2022-09-23T12:00:06.949Z,21.42
2022-09-23T12:02:42.046Z,21.56
2022-09-23T12:05:13.098Z,21.16
2022-09-23T12:07:40.783Z,21.39
2022-09-23T12:10:08.735Z,21.20
2022-09-23T12:12:39.079Z,21.39
2022-09-23T12:15:39.560Z,20.96
2022-09-23T12:18:23.410Z,21.12
2022-09-23T12:21:06.245Z,21.00
2022-09-23T12:23:48.889Z,21.35
2022-09-23T12:26:19.067Z,21.01
2022-09-23T12:28:49.997Z,20.73
2022-09-23T12:31:22.204Z,20.60
2022-09-23T12:33:53.770Z,20.50
2022-09-23T12:36:35.561Z,20.28
2022-09-23T12:39:17.578Z,20.32
2022-09-23T12:41:49.314Z,20.64
2022-09-23T12:44:23.422Z,20.87
2022-09-23T12:47:14.154Z,20.59
2022-09-23T12:49:42.748Z,20.98
2022-09-23T12:52:13.675Z,21.41
2022-09-23T12:54:42.551Z,21.41
2022-09-23T12:57:39.862Z,21.00
2022-09-23T13:00:11.380Z,20.89
2022-09-23T13:03:20.647Z,21.12
2022-09-23T13:06:11.283Z,20.63
2022-09-23T13:08:40.523Z,20.64
2022-09-23T13:11:28.563Z,20.40
2022-09-23T13:13:57.957Z,20.89
2022-09-23T13:16:30.387Z,20.83
2022-09-23T13:19:24.227Z,20.80
2022-09-23T13:21:55.047Z,21.11
2022-09-23T13:24:22.813Z,20.69
2022-09-23T13:26:54.466Z,20.72
2022-09-23T13:29:27.682Z,20.75
2022-09-23T13:31:57.992Z,20.35
2022-09-23T13:34:27.709Z,20.08
2022-09-23T13:36:55.276Z,20.18
2022-09-23T13:39:24.728Z,20.39
2022-09-23T13:42:03.031Z,20.72
2022-09-23T13:44:30.858Z,20.21
2022-09-23T13:46:59.511Z,20.69
2022-09-23T13:49:35.417Z,20.83
2022-09-23T13:52:03.313Z,20.67
2022-09-23T13:54:47.261Z,20.64
2022-09-23T13:57:34.609Z,20.27
2022-09-23T14:00:16.600Z,20.35
2022-09-23T14:02:44.480Z,20.75
2022-09-23T14:05:13.262Z,20.17
2022-09-23T14:07:40.989Z,19.99
2022-09-23T14:10:08.798Z,19.74
2022-09-23T14:12:39.528Z,19.61
2022-09-23T14:15:14.015Z,19.50
2022-09-23T14:17:46.034Z,19.31
2022-09-23T14:20:17.522Z,19.14
2022-09-23T14:22:45.327Z,19.07
2022-09-23T14:25:14.614Z,19.23
2022-09-23T14:27:42.552Z,19.71
2022-09-23T14:30:18.012Z,19.95
2022-09-23T14:32:47.997Z,20.19
2022-09-23T14:35:20.239Z,20.46
2022-09-23T14:38:08.540Z,20.69
2022-09-23T14:40:53.592Z,20.14
2022-09-23T14:43:24.014Z,20.07
2022-09-23T14:45:56.481Z,19.89
2022-09-23T14:48:28.214Z,19.86
2022-09-23T14:51:00.496Z,20.10
2022-09-23T14:53:39.936Z,20.18
2022-09-23T14:56:08.702Z,20.02
2022-09-23T14:58:56.494Z,19.83
2022-09-23T15:01:27.866Z,19.69
2022-09-23T15:04:00.008Z,19.90
2022-09-23T15:06:27.640Z,19.65
2022-09-23T15:08:55.599Z,19.46
2022-09-23T15:11:23.355Z,19.56
2022-09-23T15:13:51.797Z,19.61
2022-09-23T15:16:28.610Z,19.57
2022-09-23T15:19:00.064Z,19.46
2022-09-23T15:21:41.093Z,19.21
2022-09-23T15:24:38.400Z,19.32
2022-09-23T15:27:29.693Z,19.20
2022-09-23T15:30:15.589Z,19.09
2022-09-23T15:32:44.910Z,18.97
2022-09-23T15:35:18.856Z,18.80
2022-09-23T15:37:47.304Z,18.72
2022-09-23T15:40:26.262Z,18.69
2022-09-23T15:42:58.722Z,18.62
2022-09-23T15:45:32.055Z,18.57
2022-09-23T15:48:07.459Z,18.52
2022-09-23T15:50:36.109Z,18.50
2022-09-23T15:53:04.874Z,18.55
2022-09-23T15:55:33.779Z,18.50
2022-09-23T15:58:01.367Z,18.51
2022-09-23T16:00:29.433Z,18.34
2022-09-23T16:02:57.039Z,18.18
2022-09-23T16:05:37.836Z,18.09
2022-09-23T16:08:09.041Z,17.96
2022-09-23T16:10:37.554Z,17.81
2022-09-23T16:13:13.126Z,17.74
2022-09-23T16:15:40.916Z,17.72
2022-09-23T16:18:09.496Z,17.62
2022-09-23T16:20:38.937Z,17.58
2022-09-23T16:23:08.957Z,17.52
2022-09-23T16:25:36.773Z,17.40
2022-09-23T16:28:04.822Z,17.36
2022-09-23T16:30:33.599Z,17.30
2022-09-23T16:33:02.122Z,17.16
2022-09-23T16:35:39.045Z,17.03
2022-09-23T16:38:07.792Z,16.97
2022-09-23T16:40:35.526Z,16.89
2022-09-23T16:43:05.526Z,16.80
2022-09-23T16:45:33.460Z,16.73
2022-09-23T16:48:01.433Z,16.70
2022-09-23T16:50:29.712Z,16.66
2022-09-23T16:52:57.488Z,16.56
2022-09-23T16:55:25.801Z,16.52
2022-09-23T16:57:54.238Z,16.48
2022-09-23T17:00:40.973Z,16.40
2022-09-23T17:03:29.472Z,16.31
2022-09-23T17:05:57.501Z,16.21
2022-09-23T17:08:25.106Z,16.11
2022-09-23T17:10:58.642Z,16.03
2022-09-23T17:13:27.329Z,15.97
2022-09-23T17:15:55.146Z,15.85
2022-09-23T17:18:23.117Z,15.77
2022-09-23T17:21:03.906Z,15.75
2022-09-23T17:23:33.590Z,15.76
2022-09-23T17:26:01.770Z,15.62
2022-09-23T17:28:29.400Z,15.61
